sensor_id;sensor_type;location;lat;lon;timestamp;P1;durP1;ratioP1;P2;durP2;ratioP2
57609;SDS011;43435;46.186;9.024;2023-05-10T06:26:58;4.00;;;2.10;;
57609;SDS011;43435;46.186;9.024;2023-05-10T06:29:25;3.80;;;2.00;;
57609;SDS011;43435;46.186;9.024;2023-05-10T06:31:50;2.97;;;2.05;;
57609;SDS011;43435;46.186;9.024;2023-05-10T06:34:15;2.88;;;1.75;;
57609;SDS011;43435;46.186;9.024;2023-05-10T06:36:40;2.73;;;1.70;;
57609;SDS011;43435;46.186;9.024;2023-05-10T06:39:06;2.40;;;1.50;;
57609;SDS011;43435;46.186;9.024;2023-05-10T06:41:31;2.05;;;1.48;;
57609;SDS011;43435;46.186;9.024;2023-05-10T06:43:56;2.63;;;1.73;;
57609;SDS011;43435;46.186;9.024;2023-05-10T06:46:21;2.88;;;1.83;;
57609;SDS011;43435;46.186;9.024;2023-05-10T06:48:47;3.73;;;1.97;;
57609;SDS011;43435;46.186;9.024;2023-05-10T06:51:12;2.53;;;1.80;;
57609;SDS011;43435;46.186;9.024;2023-05-10T06:53:37;2.17;;;1.45;;
57609;SDS011;43435;46.186;9.024;2023-05-10T06:56:02;2.88;;;1.60;;
57609;SDS011;43435;46.186;9.024;2023-05-10T06:58:28;4.00;;;1.73;;
57609;SDS011;43435;46.186;9.024;2023-05-10T07:00:53;2.63;;;1.70;;
57609;SDS011;43435;46.186;9.024;2023-05-10T07:03:18;2.90;;;1.70;;
57609;SDS011;43435;46.186;9.024;2023-05-10T07:05:43;2.40;;;1.55;;
57609;SDS011;43435;46.186;9.024;2023-05-10T07:08:08;2.57;;;1.77;;
57609;SDS011;43435;46.186;9.024;2023-05-10T07:10:34;4.57;;;2.43;;
57609;SDS011;43435;46.186;9.024;2023-05-10T07:12:59;3.03;;;1.60;;
57609;SDS011;43435;46.186;9.024;2023-05-10T07:15:25;3.17;;;1.88;;
57609;SDS011;43435;46.186;9.024;2023-05-10T07:17:50;2.20;;;1.60;;
57609;SDS011;43435;46.186;9.024;2023-05-10T07:20:16;2.38;;;1.70;;
57609;SDS011;43435;46.186;9.024;2023-05-10T07:22:41;2.50;;;1.63;;
57609;SDS011;43435;46.186;9.024;2023-05-10T07:25:07;3.10;;;2.05;;
57609;SDS011;43435;46.186;9.024;2023-05-10T07:27:32;5.10;;;2.17;;
57609;SDS011;43435;46.186;9.024;2023-05-10T07:29:57;3.30;;;1.77;;
57609;SDS011;43435;46.186;9.024;2023-05-10T07:32:23;3.03;;;1.92;;
57609;SDS011;43435;46.186;9.024;2023-05-10T07:34:48;2.53;;;1.67;;
57609;SDS011;43435;46.186;9.024;2023-05-10T07:37:14;3.13;;;2.10;;
57609;SDS011;43435;46.186;9.024;2023-05-10T07:39:39;1.90;;;1.47;;
57609;SDS011;43435;46.186;9.024;2023-05-10T07:42:04;2.03;;;1.55;;
57609;SDS011;43435;46.186;9.024;2023-05-10T07:44:30;2.83;;;1.83;;
57609;SDS011;43435;46.186;9.024;2023-05-10T07:46:55;7.18;;;1.92;;
57609;SDS011;43435;46.186;9.024;2023-05-10T07:49:21;2.77;;;2.00;;
57609;SDS011;43435;46.186;9.024;2023-05-10T07:51:46;3.70;;;2.08;;
57609;SDS011;43435;46.186;9.024;2023-05-10T07:54:11;2.90;;;1.63;;
57609;SDS011;43435;46.186;9.024;2023-05-10T07:56:37;2.72;;;2.17;;
57609;SDS011;43435;46.186;9.024;2023-05-10T07:59:03;3.33;;;2.13;;
57609;SDS011;43435;46.186;9.024;2023-05-10T08:01:32;2.50;;;1.67;;
57609;SDS011;43435;46.186;9.024;2023-05-10T08:03:57;3.08;;;1.98;;
57609;SDS011;43435;46.186;9.024;2023-05-10T08:06:22;3.67;;;2.00;;
57609;SDS011;43435;46.186;9.024;2023-05-10T08:08:48;3.70;;;1.92;;
57609;SDS011;43435;46.186;9.024;2023-05-10T08:11:18;3.65;;;2.10;;
57609;SDS011;43435;46.186;9.024;2023-05-10T08:13:44;3.03;;;1.83;;
57609;SDS011;43435;46.186;9.024;2023-05-10T08:16:09;2.45;;;1.75;;
57609;SDS011;43435;46.186;9.024;2023-05-10T08:18:35;2.73;;;2.00;;
57609;SDS011;43435;46.186;9.024;2023-05-10T08:21:00;4.07;;;2.00;;
57609;SDS011;43435;46.186;9.024;2023-05-10T08:23:25;3.30;;;1.70;;
57609;SDS011;43435;46.186;9.024;2023-05-10T08:25:50;3.38;;;2.30;;
57609;SDS011;43435;46.186;9.024;2023-05-10T08:28:16;3.83;;;1.97;;
57609;SDS011;43435;46.186;9.024;2023-05-10T08:30:41;3.88;;;2.00;;
57609;SDS011;43435;46.186;9.024;2023-05-10T08:33:06;4.60;;;1.87;;
57609;SDS011;43435;46.186;9.024;2023-05-10T08:35:31;2.77;;;1.80;;
57609;SDS011;43435;46.186;9.024;2023-05-10T08:37:58;3.05;;;1.95;;
57609;SDS011;43435;46.186;9.024;2023-05-10T08:40:23;4.57;;;2.10;;
57609;SDS011;43435;46.186;9.024;2023-05-10T08:42:51;3.30;;;1.90;;
57609;SDS011;43435;46.186;9.024;2023-05-10T08:45:17;4.38;;;2.08;;
57609;SDS011;43435;46.186;9.024;2023-05-10T08:47:44;3.08;;;1.98;;
57609;SDS011;43435;46.186;9.024;2023-05-10T08:50:09;5.23;;;2.30;;
57609;SDS011;43435;46.186;9.024;2023-05-10T08:52:36;4.05;;;2.30;;
57609;SDS011;43435;46.186;9.024;2023-05-10T08:55:02;3.15;;;1.90;;
57609;SDS011;43435;46.186;9.024;2023-05-10T08:57:28;3.05;;;2.35;;
57609;SDS011;43435;46.186;9.024;2023-05-10T08:59:53;3.03;;;1.97;;
57609;SDS011;43435;46.186;9.024;2023-05-10T09:02:18;3.00;;;1.90;;
57609;SDS011;43435;46.186;9.024;2023-05-10T09:04:45;3.65;;;2.53;;
57609;SDS011;43435;46.186;9.024;2023-05-10T09:07:10;3.30;;;2.17;;
57609;SDS011;43435;46.186;9.024;2023-05-10T09:09:35;3.58;;;2.00;;
57609;SDS011;43435;46.186;9.024;2023-05-10T09:12:01;6.30;;;2.50;;
57609;SDS011;43435;46.186;9.024;2023-05-10T09:14:26;4.43;;;2.27;;
57609;SDS011;43435;46.186;9.024;2023-05-10T09:16:52;5.00;;;2.40;;
57609;SDS011;43435;46.186;9.024;2023-05-10T09:19:19;3.67;;;2.70;;
57609;SDS011;43435;46.186;9.024;2023-05-10T09:21:44;5.33;;;2.97;;
57609;SDS011;43435;46.186;9.024;2023-05-10T09:24:09;3.97;;;2.53;;
57609;SDS011;43435;46.186;9.024;2023-05-10T09:26:35;5.10;;;2.30;;
57609;SDS011;43435;46.186;9.024;2023-05-10T09:29:00;3.58;;;2.40;;
57609;SDS011;43435;46.186;9.024;2023-05-10T09:34:14;3.03;;;2.50;;
57609;SDS011;43435;46.186;9.024;2023-05-10T09:36:59;3.58;;;2.05;;
57609;SDS011;43435;46.186;9.024;2023-05-10T09:39:35;4.30;;;2.50;;
57609;SDS011;43435;46.186;9.024;2023-05-10T09:42:07;4.75;;;2.22;;
57609;SDS011;43435;46.186;9.024;2023-05-10T09:44:34;3.83;;;2.50;;
57609;SDS011;43435;46.186;9.024;2023-05-10T09:47:00;3.92;;;2.28;;
57609;SDS011;43435;46.186;9.024;2023-05-10T09:49:25;3.60;;;2.70;;
57609;SDS011;43435;46.186;9.024;2023-05-10T09:52:00;4.17;;;2.20;;
57609;SDS011;43435;46.186;9.024;2023-05-10T09:54:25;4.35;;;2.38;;
57609;SDS011;43435;46.186;9.024;2023-05-10T09:56:50;4.13;;;2.17;;
57609;SDS011;43435;46.186;9.024;2023-05-10T09:59:15;3.40;;;2.20;;
57609;SDS011;43435;46.186;9.024;2023-05-10T10:01:41;2.80;;;2.05;;
57609;SDS011;43435;46.186;9.024;2023-05-10T10:04:08;2.63;;;1.90;;
57609;SDS011;43435;46.186;9.024;2023-05-10T10:06:37;3.58;;;2.40;;
57609;SDS011;43435;46.186;9.024;2023-05-10T10:09:02;3.25;;;2.05;;
57609;SDS011;43435;46.186;9.024;2023-05-10T10:11:28;2.97;;;2.10;;
57609;SDS011;43435;46.186;9.024;2023-05-10T10:13:53;2.92;;;2.20;;
57609;SDS011;43435;46.186;9.024;2023-05-10T10:16:18;3.08;;;1.80;;
57609;SDS011;43435;46.186;9.024;2023-05-10T10:18:44;4.88;;;2.58;;
57609;SDS011;43435;46.186;9.024;2023-05-10T10:21:09;3.60;;;2.13;;
57609;SDS011;43435;46.186;9.024;2023-05-10T10:23:35;2.92;;;2.40;;
57609;SDS011;43435;46.186;9.024;2023-05-10T10:26:00;4.32;;;2.00;;
57609;SDS011;43435;46.186;9.024;2023-05-10T10:31:01;2.75;;;2.10;;
57609;SDS011;43435;46.186;9.024;2023-05-10T10:33:40;3.40;;;2.05;;
57609;SDS011;43435;46.186;9.024;2023-05-10T10:36:10;3.30;;;1.90;;
57609;SDS011;43435;46.186;9.024;2023-05-10T10:38:38;3.50;;;1.95;;
57609;SDS011;43435;46.186;9.024;2023-05-10T10:41:28;3.45;;;1.95;;
57609;SDS011;43435;46.186;9.024;2023-05-10T10:46:57;2.03;;;1.80;;
57609;SDS011;43435;46.186;9.024;2023-05-10T10:49:22;2.97;;;2.08;;
57609;SDS011;43435;46.186;9.024;2023-05-10T10:54:32;2.85;;;2.08;;
57609;SDS011;43435;46.186;9.024;2023-05-10T10:57:12;2.75;;;2.03;;
57609;SDS011;43435;46.186;9.024;2023-05-10T10:59:44;2.92;;;2.10;;
57609;SDS011;43435;46.186;9.024;2023-05-10T11:02:10;2.40;;;1.70;;
57609;SDS011;43435;46.186;9.024;2023-05-10T11:04:42;3.85;;;2.13;;
57609;SDS011;43435;46.186;9.024;2023-05-10T11:07:18;2.88;;;2.00;;
57609;SDS011;43435;46.186;9.024;2023-05-10T11:09:43;2.63;;;1.90;;
57609;SDS011;43435;46.186;9.024;2023-05-10T11:12:09;2.90;;;2.03;;
57609;SDS011;43435;46.186;9.024;2023-05-10T11:14:34;3.25;;;1.90;;
57609;SDS011;43435;46.186;9.024;2023-05-10T11:17:00;4.03;;;2.10;;
57609;SDS011;43435;46.186;9.024;2023-05-10T11:19:27;3.22;;;2.33;;
57609;SDS011;43435;46.186;9.024;2023-05-10T11:24:30;3.10;;;1.83;;
57609;SDS011;43435;46.186;9.024;2023-05-10T11:26:55;2.72;;;1.90;;
57609;SDS011;43435;46.186;9.024;2023-05-10T11:29:21;2.75;;;1.90;;
57609;SDS011;43435;46.186;9.024;2023-05-10T11:31:46;3.72;;;2.38;;
57609;SDS011;43435;46.186;9.024;2023-05-10T11:34:22;4.28;;;2.20;;
57609;SDS011;43435;46.186;9.024;2023-05-10T11:36:50;3.20;;;2.25;;
57609;SDS011;43435;46.186;9.024;2023-05-10T11:39:15;3.65;;;2.28;;
57609;SDS011;43435;46.186;9.024;2023-05-10T11:41:41;5.97;;;2.60;;
57609;SDS011;43435;46.186;9.024;2023-05-10T11:44:06;4.80;;;2.30;;
57609;SDS011;43435;46.186;9.024;2023-05-10T11:46:33;3.10;;;2.10;;
57609;SDS011;43435;46.186;9.024;2023-05-10T11:48:59;3.73;;;2.33;;
57609;SDS011;43435;46.186;9.024;2023-05-10T11:51:26;3.97;;;2.35;;
57609;SDS011;43435;46.186;9.024;2023-05-10T11:53:55;4.40;;;1.90;;
57609;SDS011;43435;46.186;9.024;2023-05-10T11:56:20;2.60;;;2.03;;
57609;SDS011;43435;46.186;9.024;2023-05-10T11:58:52;3.45;;;2.20;;
57609;SDS011;43435;46.186;9.024;2023-05-10T12:01:17;4.15;;;1.80;;
57609;SDS011;43435;46.186;9.024;2023-05-10T12:03:42;2.93;;;2.00;;
57609;SDS011;43435;46.186;9.024;2023-05-10T12:06:07;3.63;;;2.03;;
57609;SDS011;43435;46.186;9.024;2023-05-10T12:08:33;2.22;;;1.90;;
57609;SDS011;43435;46.186;9.024;2023-05-10T12:11:05;2.67;;;1.90;;
57609;SDS011;43435;46.186;9.024;2023-05-10T12:13:30;4.05;;;1.88;;
57609;SDS011;43435;46.186;9.024;2023-05-10T12:15:59;3.47;;;1.90;;
57609;SDS011;43435;46.186;9.024;2023-05-10T12:18:24;3.13;;;1.92;;
57609;SDS011;43435;46.186;9.024;2023-05-10T12:20:51;3.00;;;2.15;;
57609;SDS011;43435;46.186;9.024;2023-05-10T12:23:17;2.92;;;2.00;;
57609;SDS011;43435;46.186;9.024;2023-05-10T12:25:42;3.63;;;2.30;;
57609;SDS011;43435;46.186;9.024;2023-05-10T12:28:08;4.28;;;1.80;;
57609;SDS011;43435;46.186;9.024;2023-05-10T12:30:34;3.42;;;2.20;;
57609;SDS011;43435;46.186;9.024;2023-05-10T12:33:09;3.25;;;2.00;;
57609;SDS011;43435;46.186;9.024;2023-05-10T12:35:51;2.40;;;1.70;;
57609;SDS011;43435;46.186;9.024;2023-05-10T12:38:26;3.55;;;2.08;;
57609;SDS011;43435;46.186;9.024;2023-05-10T12:40:51;3.22;;;2.15;;
57609;SDS011;43435;46.186;9.024;2023-05-10T12:43:17;3.00;;;2.17;;
57609;SDS011;43435;46.186;9.024;2023-05-10T12:45:42;2.53;;;1.87;;
57609;SDS011;43435;46.186;9.024;2023-05-10T12:48:07;2.73;;;1.93;;
57609;SDS011;43435;46.186;9.024;2023-05-10T12:50:32;3.63;;;2.30;;
57609;SDS011;43435;46.186;9.024;2023-05-10T12:52:57;2.63;;;1.97;;
57609;SDS011;43435;46.186;9.024;2023-05-10T12:55:22;5.07;;;2.10;;
57609;SDS011;43435;46.186;9.024;2023-05-10T12:57:48;2.90;;;2.20;;
57609;SDS011;43435;46.186;9.024;2023-05-10T13:00:13;2.93;;;2.07;;
57609;SDS011;43435;46.186;9.024;2023-05-10T13:02:38;3.30;;;2.40;;
57609;SDS011;43435;46.186;9.024;2023-05-10T13:05:04;3.70;;;2.30;;
57609;SDS011;43435;46.186;9.024;2023-05-10T13:07:29;5.38;;;2.50;;
57609;SDS011;43435;46.186;9.024;2023-05-10T13:09:54;5.57;;;1.90;;
57609;SDS011;43435;46.186;9.024;2023-05-10T13:12:19;2.90;;;2.27;;
57609;SDS011;43435;46.186;9.024;2023-05-10T13:14:45;2.77;;;1.87;;
57609;SDS011;43435;46.186;9.024;2023-05-10T13:17:10;3.83;;;1.87;;
57609;SDS011;43435;46.186;9.024;2023-05-10T13:19:35;4.07;;;2.30;;
57609;SDS011;43435;46.186;9.024;2023-05-10T13:22:00;2.93;;;2.00;;
57609;SDS011;43435;46.186;9.024;2023-05-10T13:24:25;2.80;;;2.17;;
57609;SDS011;43435;46.186;9.024;2023-05-10T13:26:51;3.23;;;2.30;;
57609;SDS011;43435;46.186;9.024;2023-05-10T13:29:16;2.43;;;1.70;;
57609;SDS011;43435;46.186;9.024;2023-05-10T13:31:42;2.45;;;1.98;;
57609;SDS011;43435;46.186;9.024;2023-05-10T13:34:08;3.50;;;1.60;;
57609;SDS011;43435;46.186;9.024;2023-05-10T13:36:33;1.97;;;1.50;;
57609;SDS011;43435;46.186;9.024;2023-05-10T13:38:58;3.43;;;1.80;;
57609;SDS011;43435;46.186;9.024;2023-05-10T13:41:23;2.07;;;1.63;;
57609;SDS011;43435;46.186;9.024;2023-05-10T13:43:48;2.43;;;1.83;;
57609;SDS011;43435;46.186;9.024;2023-05-10T13:46:14;2.55;;;1.70;;
57609;SDS011;43435;46.186;9.024;2023-05-10T13:48:39;2.63;;;1.87;;
57609;SDS011;43435;46.186;9.024;2023-05-10T13:51:04;2.40;;;1.90;;
57609;SDS011;43435;46.186;9.024;2023-05-10T13:53:29;3.70;;;1.97;;
57609;SDS011;43435;46.186;9.024;2023-05-10T13:55:55;2.27;;;1.43;;
57609;SDS011;43435;46.186;9.024;2023-05-10T13:58:20;2.43;;;1.90;;
57609;SDS011;43435;46.186;9.024;2023-05-10T14:00:45;2.63;;;1.83;;
57609;SDS011;43435;46.186;9.024;2023-05-10T14:03:10;2.73;;;1.90;;
57609;SDS011;43435;46.186;9.024;2023-05-10T14:05:36;2.58;;;1.83;;
57609;SDS011;43435;46.186;9.024;2023-05-10T14:08:01;2.65;;;1.67;;
57609;SDS011;43435;46.186;9.024;2023-05-10T14:10:26;2.43;;;1.80;;
57609;SDS011;43435;46.186;9.024;2023-05-10T14:12:51;3.20;;;1.60;;
57609;SDS011;43435;46.186;9.024;2023-05-10T14:15:16;2.23;;;1.63;;
57609;SDS011;43435;46.186;9.024;2023-05-10T14:17:42;2.60;;;2.00;;
57609;SDS011;43435;46.186;9.024;2023-05-10T14:20:07;2.73;;;1.70;;
57609;SDS011;43435;46.186;9.024;2023-05-10T14:22:33;2.72;;;1.98;;
57609;SDS011;43435;46.186;9.024;2023-05-10T14:24:58;2.33;;;1.63;;
57609;SDS011;43435;46.186;9.024;2023-05-10T14:27:23;2.13;;;1.70;;
57609;SDS011;43435;46.186;9.024;2023-05-10T14:29:49;2.65;;;1.60;;
57609;SDS011;43435;46.186;9.024;2023-05-10T14:32:14;3.30;;;1.60;;
57609;SDS011;43435;46.186;9.024;2023-05-10T14:34:39;2.80;;;1.90;;
57609;SDS011;43435;46.186;9.024;2023-05-10T14:37:04;2.80;;;1.80;;
57609;SDS011;43435;46.186;9.024;2023-05-10T14:39:30;2.40;;;1.87;;
57609;SDS011;43435;46.186;9.024;2023-05-10T14:41:55;2.43;;;1.90;;
57609;SDS011;43435;46.186;9.024;2023-05-10T14:44:20;3.95;;;1.73;;
57609;SDS011;43435;46.186;9.024;2023-05-10T14:46:45;4.37;;;1.90;;
57609;SDS011;43435;46.186;9.024;2023-05-10T14:49:11;4.00;;;1.70;;
57609;SDS011;43435;46.186;9.024;2023-05-10T14:51:36;2.30;;;1.80;;
57609;SDS011;43435;46.186;9.024;2023-05-10T14:54:01;3.10;;;1.90;;
57609;SDS011;43435;46.186;9.024;2023-05-10T14:56:27;1.88;;;1.42;;
57609;SDS011;43435;46.186;9.024;2023-05-10T14:58:52;2.55;;;1.80;;
57609;SDS011;43435;46.186;9.024;2023-05-10T15:01:18;2.30;;;1.50;;
57609;SDS011;43435;46.186;9.024;2023-05-10T15:03:43;2.17;;;1.50;;
57609;SDS011;43435;46.186;9.024;2023-05-10T15:06:09;2.53;;;1.80;;
57609;SDS011;43435;46.186;9.024;2023-05-10T15:08:34;6.03;;;2.28;;
57609;SDS011;43435;46.186;9.024;2023-05-10T15:10:59;2.50;;;1.48;;
57609;SDS011;43435;46.186;9.024;2023-05-10T15:13:25;2.10;;;1.40;;
57609;SDS011;43435;46.186;9.024;2023-05-10T15:15:50;3.27;;;2.00;;
57609;SDS011;43435;46.186;9.024;2023-05-10T15:18:15;1.93;;;1.63;;
57609;SDS011;43435;46.186;9.024;2023-05-10T15:20:40;2.83;;;2.03;;
57609;SDS011;43435;46.186;9.024;2023-05-10T15:23:06;2.72;;;1.73;;
57609;SDS011;43435;46.186;9.024;2023-05-10T15:25:31;2.30;;;1.90;;
57609;SDS011;43435;46.186;9.024;2023-05-10T15:27:59;2.33;;;1.65;;
57609;SDS011;43435;46.186;9.024;2023-05-10T15:30:24;2.40;;;1.73;;
57609;SDS011;43435;46.186;9.024;2023-05-10T15:32:49;2.75;;;1.70;;
57609;SDS011;43435;46.186;9.024;2023-05-10T15:35:14;1.73;;;1.47;;
57609;SDS011;43435;46.186;9.024;2023-05-10T15:37:40;1.67;;;1.20;;
57609;SDS011;43435;46.186;9.024;2023-05-10T15:40:05;2.07;;;1.60;;
57609;SDS011;43435;46.186;9.024;2023-05-10T15:42:31;2.58;;;1.80;;
57609;SDS011;43435;46.186;9.024;2023-05-10T15:44:56;3.25;;;1.80;;
57609;SDS011;43435;46.186;9.024;2023-05-10T15:47:22;2.05;;;1.40;;
57609;SDS011;43435;46.186;9.024;2023-05-10T15:49:47;3.00;;;1.63;;
57609;SDS011;43435;46.186;9.024;2023-05-10T15:52:12;2.70;;;1.60;;
57609;SDS011;43435;46.186;9.024;2023-05-10T15:54:37;2.57;;;1.80;;
57609;SDS011;43435;46.186;9.024;2023-05-10T15:57:02;3.20;;;1.53;;
57609;SDS011;43435;46.186;9.024;2023-05-10T15:59:27;2.27;;;1.77;;
57609;SDS011;43435;46.186;9.024;2023-05-10T16:01:53;3.13;;;1.70;;
57609;SDS011;43435;46.186;9.024;2023-05-10T16:04:18;2.17;;;1.60;;
57609;SDS011;43435;46.186;9.024;2023-05-10T16:06:43;2.50;;;1.60;;
57609;SDS011;43435;46.186;9.024;2023-05-10T16:09:08;2.77;;;1.67;;
57609;SDS011;43435;46.186;9.024;2023-05-10T16:11:35;2.47;;;1.70;;
57609;SDS011;43435;46.186;9.024;2023-05-10T16:14:00;2.53;;;1.60;;
57609;SDS011;43435;46.186;9.024;2023-05-10T16:16:25;2.50;;;1.70;;
57609;SDS011;43435;46.186;9.024;2023-05-10T16:18:51;2.83;;;1.37;;
57609;SDS011;43435;46.186;9.024;2023-05-10T16:21:16;3.95;;;2.00;;
57609;SDS011;43435;46.186;9.024;2023-05-10T16:23:41;2.93;;;1.47;;
57609;SDS011;43435;46.186;9.024;2023-05-10T16:26:07;3.10;;;1.88;;
57609;SDS011;43435;46.186;9.024;2023-05-10T16:28:32;2.40;;;1.85;;
57609;SDS011;43435;46.186;9.024;2023-05-10T16:30:57;2.30;;;1.57;;
57609;SDS011;43435;46.186;9.024;2023-05-10T16:33:23;3.00;;;1.90;;
57609;SDS011;43435;46.186;9.024;2023-05-10T16:35:48;4.07;;;1.80;;
57609;SDS011;43435;46.186;9.024;2023-05-10T16:38:13;2.20;;;1.67;;
57609;SDS011;43435;46.186;9.024;2023-05-10T16:40:38;2.03;;;1.55;;
57609;SDS011;43435;46.186;9.024;2023-05-10T16:43:04;2.13;;;1.57;;
57609;SDS011;43435;46.186;9.024;2023-05-10T16:45:32;4.13;;;1.73;;
57609;SDS011;43435;46.186;9.024;2023-05-10T16:47:57;2.13;;;1.42;;
57609;SDS011;43435;46.186;9.024;2023-05-10T16:50:22;1.87;;;1.30;;
57609;SDS011;43435;46.186;9.024;2023-05-10T16:52:48;4.00;;;1.70;;
57609;SDS011;43435;46.186;9.024;2023-05-10T16:55:13;4.33;;;1.60;;
57609;SDS011;43435;46.186;9.024;2023-05-10T16:57:38;3.70;;;2.00;;
57609;SDS011;43435;46.186;9.024;2023-05-10T17:00:03;2.88;;;1.85;;
57609;SDS011;43435;46.186;9.024;2023-05-10T17:02:29;2.95;;;2.00;;
57609;SDS011;43435;46.186;9.024;2023-05-10T17:04:54;3.33;;;2.25;;
57609;SDS011;43435;46.186;9.024;2023-05-10T17:07:20;3.42;;;1.80;;
57609;SDS011;43435;46.186;9.024;2023-05-10T17:09:45;2.00;;;1.20;;
57609;SDS011;43435;46.186;9.024;2023-05-10T17:12:10;3.03;;;1.23;;
57609;SDS011;43435;46.186;9.024;2023-05-10T17:14:36;1.70;;;1.10;;
57609;SDS011;43435;46.186;9.024;2023-05-10T17:17:02;2.55;;;1.40;;
57609;SDS011;43435;46.186;9.024;2023-05-10T17:19:27;2.50;;;1.30;;
57609;SDS011;43435;46.186;9.024;2023-05-10T17:21:52;4.20;;;1.30;;
57609;SDS011;43435;46.186;9.024;2023-05-10T17:24:17;1.88;;;1.30;;
57609;SDS011;43435;46.186;9.024;2023-05-10T17:26:43;2.53;;;1.40;;
57609;SDS011;43435;46.186;9.024;2023-05-10T17:29:08;4.95;;;1.75;;
57609;SDS011;43435;46.186;9.024;2023-05-10T17:31:33;3.13;;;1.60;;
57609;SDS011;43435;46.186;9.024;2023-05-10T17:33:58;2.80;;;1.30;;
57609;SDS011;43435;46.186;9.024;2023-05-10T17:36:24;2.20;;;1.30;;
57609;SDS011;43435;46.186;9.024;2023-05-10T17:38:49;2.97;;;1.77;;
57609;SDS011;43435;46.186;9.024;2023-05-10T17:41:15;3.60;;;1.50;;
57609;SDS011;43435;46.186;9.024;2023-05-10T17:43:40;2.25;;;1.35;;
57609;SDS011;43435;46.186;9.024;2023-05-10T17:46:06;2.20;;;1.83;;
57609;SDS011;43435;46.186;9.024;2023-05-10T17:48:31;4.77;;;1.90;;
57609;SDS011;43435;46.186;9.024;2023-05-10T17:50:56;2.33;;;1.60;;
57609;SDS011;43435;46.186;9.024;2023-05-10T17:53:21;1.70;;;1.30;;
57609;SDS011;43435;46.186;9.024;2023-05-10T17:55:46;2.35;;;1.85;;
57609;SDS011;43435;46.186;9.024;2023-05-10T17:58:12;2.57;;;1.80;;
57609;SDS011;43435;46.186;9.024;2023-05-10T18:00:37;5.33;;;1.93;;
57609;SDS011;43435;46.186;9.024;2023-05-10T18:03:03;1.97;;;1.60;;
57609;SDS011;43435;46.186;9.024;2023-05-10T18:05:28;6.50;;;1.77;;
57609;SDS011;43435;46.186;9.024;2023-05-10T18:07:53;3.67;;;1.50;;
57609;SDS011;43435;46.186;9.024;2023-05-10T18:10:19;2.72;;;1.65;;
57609;SDS011;43435;46.186;9.024;2023-05-10T18:12:44;3.88;;;1.92;;
57609;SDS011;43435;46.186;9.024;2023-05-10T18:15:09;3.50;;;1.80;;
57609;SDS011;43435;46.186;9.024;2023-05-10T18:17:34;4.57;;;1.83;;
57609;SDS011;43435;46.186;9.024;2023-05-10T18:20:00;1.83;;;1.40;;
57609;SDS011;43435;46.186;9.024;2023-05-10T18:22:26;2.42;;;1.73;;
57609;SDS011;43435;46.186;9.024;2023-05-10T18:24:51;2.85;;;1.77;;
57609;SDS011;43435;46.186;9.024;2023-05-10T18:27:17;2.72;;;1.90;;
57609;SDS011;43435;46.186;9.024;2023-05-10T18:29:42;3.90;;;2.00;;
57609;SDS011;43435;46.186;9.024;2023-05-10T18:32:07;3.80;;;3.20;;
57609;SDS011;43435;46.186;9.024;2023-05-10T18:34:32;3.97;;;2.43;;
57609;SDS011;43435;46.186;9.024;2023-05-10T18:36:58;4.53;;;2.20;;
57609;SDS011;43435;46.186;9.024;2023-05-10T18:39:23;3.47;;;2.20;;
57609;SDS011;43435;46.186;9.024;2023-05-10T18:41:48;4.93;;;2.90;;
57609;SDS011;43435;46.186;9.024;2023-05-10T18:44:14;4.47;;;2.78;;
57609;SDS011;43435;46.186;9.024;2023-05-10T18:46:39;5.67;;;2.60;;
57609;SDS011;43435;46.186;9.024;2023-05-10T18:49:06;7.10;;;3.72;;
57609;SDS011;43435;46.186;9.024;2023-05-10T18:51:32;6.03;;;3.17;;
57609;SDS011;43435;46.186;9.024;2023-05-10T18:53:57;3.63;;;2.50;;
57609;SDS011;43435;46.186;9.024;2023-05-10T18:56:22;7.03;;;3.83;;
57609;SDS011;43435;46.186;9.024;2023-05-10T18:58:48;5.13;;;3.00;;
57609;SDS011;43435;46.186;9.024;2023-05-10T19:01:13;5.97;;;3.70;;
57609;SDS011;43435;46.186;9.024;2023-05-10T19:03:38;6.82;;;3.20;;
57609;SDS011;43435;46.186;9.024;2023-05-10T19:06:04;6.03;;;3.10;;
57609;SDS011;43435;46.186;9.024;2023-05-10T19:08:29;4.17;;;2.10;;
57609;SDS011;43435;46.186;9.024;2023-05-10T19:10:54;3.20;;;2.37;;
57609;SDS011;43435;46.186;9.024;2023-05-10T19:13:19;4.15;;;2.92;;
57609;SDS011;43435;46.186;9.024;2023-05-10T19:15:45;7.93;;;4.13;;
57609;SDS011;43435;46.186;9.024;2023-05-10T19:18:10;6.90;;;4.10;;
57609;SDS011;43435;46.186;9.024;2023-05-10T19:20:35;7.50;;;3.73;;
57609;SDS011;43435;46.186;9.024;2023-05-10T19:23:00;8.75;;;5.57;;
57609;SDS011;43435;46.186;9.024;2023-05-10T19:25:26;7.70;;;4.68;;
57609;SDS011;43435;46.186;9.024;2023-05-10T19:27:56;3.55;;;2.47;;
57609;SDS011;43435;46.186;9.024;2023-05-10T19:30:22;12.70;;;6.90;;
57609;SDS011;43435;46.186;9.024;2023-05-10T19:32:47;3.67;;;2.72;;
57609;SDS011;43435;46.186;9.024;2023-05-10T19:35:12;5.00;;;2.23;;
57609;SDS011;43435;46.186;9.024;2023-05-10T19:37:37;9.67;;;2.30;;
57609;SDS011;43435;46.186;9.024;2023-05-10T19:40:03;4.45;;;2.80;;
57609;SDS011;43435;46.186;9.024;2023-05-10T19:42:28;3.80;;;3.05;;
57609;SDS011;43435;46.186;9.024;2023-05-10T19:44:53;6.60;;;3.30;;
57609;SDS011;43435;46.186;9.024;2023-05-10T19:47:19;4.57;;;2.75;;
57609;SDS011;43435;46.186;9.024;2023-05-10T19:49:44;7.25;;;2.50;;
57609;SDS011;43435;46.186;9.024;2023-05-10T19:52:09;3.73;;;2.50;;
57609;SDS011;43435;46.186;9.024;2023-05-10T19:54:35;4.07;;;3.17;;
57609;SDS011;43435;46.186;9.024;2023-05-10T19:57:02;4.47;;;2.78;;
57609;SDS011;43435;46.186;9.024;2023-05-10T19:59:27;4.40;;;2.83;;
57609;SDS011;43435;46.186;9.024;2023-05-10T20:01:52;5.37;;;3.33;;
57609;SDS011;43435;46.186;9.024;2023-05-10T20:04:17;4.27;;;2.60;;
57609;SDS011;43435;46.186;9.024;2023-05-10T20:06:42;5.00;;;3.38;;
57609;SDS011;43435;46.186;9.024;2023-05-10T20:09:07;3.60;;;2.40;;
57609;SDS011;43435;46.186;9.024;2023-05-10T20:11:33;3.67;;;2.83;;
57609;SDS011;43435;46.186;9.024;2023-05-10T20:13:59;3.13;;;2.00;;
57609;SDS011;43435;46.186;9.024;2023-05-10T20:16:24;3.07;;;2.10;;
57609;SDS011;43435;46.186;9.024;2023-05-10T20:18:49;4.82;;;2.38;;
